createdAt,value
2023-01-31T00:00:13.131Z,99538.72
2023-01-31T00:02:43.143Z,99536.34
2023-01-31T00:05:11.835Z,99549.28
2023-01-31T00:07:42.723Z,99551.66
2023-01-31T00:10:12.868Z,99540.94
2023-01-31T00:12:41.399Z,99546.19
2023-01-31T00:15:10.994Z,99556.41
2023-01-31T00:17:40.102Z,99552.25
2023-01-31T00:20:11.756Z,99553.78
2023-01-31T00:22:40.292Z,99551.41
2023-01-31T00:25:09.906Z,99575.22
2023-01-31T00:27:38.523Z,99578.06
2023-01-31T00:30:08.381Z,99571.88
2023-01-31T00:32:37.433Z,99568.31
2023-01-31T00:35:07.057Z,99574.38
2023-01-31T00:37:38.113Z,99585.94
2023-01-31T00:40:08.808Z,99572.63
2023-01-31T00:42:38.247Z,99580.13
2023-01-31T00:45:08.654Z,99574.63
2023-01-31T00:47:37.634Z,99584.28
2023-01-31T00:50:07.361Z,99594.75
2023-01-31T00:52:38.029Z,99585.63
2023-01-31T00:55:07.221Z,99586.69
2023-01-31T00:57:36.641Z,99585.97
2023-01-31T01:00:06.427Z,99597.41
2023-01-31T01:02:35.614Z,99580.38
2023-01-31T01:05:04.075Z,99593.34
2023-01-31T01:07:33.027Z,99590.00
2023-01-31T01:10:03.163Z,99592.53
2023-01-31T01:12:32.030Z,99606.56
2023-01-31T01:15:00.692Z,99607.66
2023-01-31T01:17:29.224Z,99607.66
2023-01-31T01:19:57.691Z,99605.16
2023-01-31T01:22:26.183Z,99613.13
2023-01-31T01:24:54.607Z,99612.31
2023-01-31T01:27:24.711Z,99617.41
2023-01-31T01:29:53.131Z,99620.03
2023-01-31T01:32:22.065Z,99589.69
2023-01-31T01:34:50.711Z,99606.47
2023-01-31T01:37:21.423Z,99625.03
2023-01-31T01:39:50.619Z,99627.66
2023-01-31T01:42:21.789Z,99630.03
2023-01-31T01:44:54.198Z,99646.59
2023-01-31T01:47:37.062Z,99656.47
2023-01-31T01:50:14.970Z,99657.81
2023-01-31T01:52:48.688Z,99658.53
2023-01-31T01:55:23.796Z,99664.00
2023-01-31T01:58:04.666Z,99671.00
2023-01-31T02:00:37.058Z,99666.88
2023-01-31T02:03:08.537Z,99668.16
2023-01-31T02:05:42.111Z,99666.25
2023-01-31T02:08:12.435Z,99672.09
2023-01-31T02:10:45.738Z,99680.69
2023-01-31T02:13:16.709Z,99683.53
2023-01-31T02:15:47.214Z,99684.50
2023-01-31T02:18:17.435Z,99682.22
2023-01-31T02:21:43.771Z,99681.66
2023-01-31T02:24:43.923Z,99690.81
2023-01-31T02:27:37.023Z,99708.53
2023-01-31T02:30:49.691Z,99717.22
2023-01-31T02:33:25.212Z,99728.66
2023-01-31T02:36:05.833Z,99744.91
2023-01-31T02:38:45.924Z,99733.69
2023-01-31T02:41:21.650Z,99742.78
2023-01-31T02:44:12.893Z,99735.25
2023-01-31T02:46:50.113Z,99749.72
2023-01-31T02:49:35.867Z,99752.94
2023-01-31T02:52:20.578Z,99771.59
2023-01-31T02:55:14.003Z,99771.81
2023-01-31T02:57:44.704Z,99778.69
2023-01-31T03:00:15.195Z,99764.69
2023-01-31T03:02:43.921Z,99780.66
2023-01-31T03:05:16.732Z,99779.69
2023-01-31T03:07:49.822Z,99788.00
2023-01-31T03:10:29.133Z,99790.72
2023-01-31T03:13:12.582Z,99796.34
2023-01-31T03:16:13.749Z,99801.13
2023-01-31T03:18:48.393Z,99793.13
2023-01-31T03:21:22.979Z,99798.34
2023-01-31T03:23:55.128Z,99811.09
2023-01-31T03:26:26.073Z,99810.25
2023-01-31T03:28:57.467Z,99827.53
2023-01-31T03:31:31.613Z,99834.50
2023-01-31T03:34:06.184Z,99838.94
2023-01-31T03:36:42.133Z,99838.69
2023-01-31T03:39:19.779Z,99823.47
2023-01-31T03:42:02.530Z,99840.38
2023-01-31T03:44:41.256Z,99851.56
2023-01-31T03:47:19.771Z,99842.69
2023-01-31T03:49:50.572Z,99856.47
2023-01-31T03:52:25.826Z,99832.31
2023-01-31T03:54:59.991Z,99844.34
2023-01-31T03:57:34.617Z,99846.00
2023-01-31T04:00:07.257Z,99859.91
2023-01-31T04:02:37.687Z,99849.88
2023-01-31T04:05:10.545Z,99849.69
2023-01-31T04:07:41.616Z,99879.53
2023-01-31T04:10:14.777Z,99858.66
2023-01-31T04:12:43.719Z,99868.06
2023-01-31T04:15:13.575Z,99882.75
2023-01-31T04:17:42.137Z,99876.16
2023-01-31T04:20:12.388Z,99891.44
2023-01-31T04:22:42.832Z,99870.50
2023-01-31T04:25:12.497Z,99894.69
2023-01-31T04:27:41.206Z,99895.78
2023-01-31T04:30:11.897Z,99882.56
2023-01-31T04:32:40.439Z,99899.72
2023-01-31T04:35:10.287Z,99894.63
2023-01-31T04:37:38.803Z,99897.22
2023-01-31T04:40:10.834Z,99896.16
2023-01-31T04:42:39.317Z,99890.09
2023-01-31T04:45:09.303Z,99903.69
2023-01-31T04:47:37.716Z,99909.50
2023-01-31T04:50:07.487Z,99922.72
2023-01-31T04:52:36.525Z,99921.06
2023-01-31T04:55:05.343Z,99916.28
2023-01-31T04:57:35.252Z,99917.09
2023-01-31T05:00:03.674Z,99928.41
2023-01-31T05:02:32.937Z,99909.81
2023-01-31T05:05:01.870Z,99916.28
2023-01-31T05:07:30.259Z,99916.50
2023-01-31T05:09:58.703Z,99925.28
2023-01-31T05:12:28.745Z,99926.97
2023-01-31T05:15:02.043Z,99917.75
2023-01-31T05:17:31.431Z,99917.75
2023-01-31T05:20:00.293Z,99920.50
2023-01-31T05:22:28.800Z,99926.16
2023-01-31T05:24:58.551Z,99932.22
2023-01-31T05:27:27.710Z,99937.56
2023-01-31T05:29:57.750Z,99953.38
2023-01-31T05:32:26.332Z,99934.13
2023-01-31T05:34:54.909Z,99951.91
2023-01-31T05:37:23.441Z,99962.38
2023-01-31T05:39:52.098Z,99963.19
2023-01-31T05:42:20.573Z,99964.47
2023-01-31T05:44:49.384Z,99971.16
2023-01-31T05:47:19.391Z,99982.56
2023-01-31T05:49:47.866Z,99966.16
2023-01-31T05:52:16.374Z,100000.97
2023-01-31T05:54:44.756Z,100000.25
2023-01-31T05:57:14.655Z,99988.31
2023-01-31T05:59:43.093Z,99988.75
2023-01-31T06:02:12.018Z,100005.16
2023-01-31T06:04:41.956Z,100007.78
2023-01-31T06:07:10.458Z,100015.84
2023-01-31T06:09:40.788Z,100002.75
2023-01-31T06:12:14.912Z,100007.16
2023-01-31T06:14:43.428Z,100007.16
2023-01-31T06:17:12.268Z,100017.50
2023-01-31T06:19:42.394Z,100025.38
2023-01-31T06:22:10.830Z,100036.44
2023-01-31T06:24:39.313Z,100040.53
2023-01-31T06:27:08.479Z,100050.88
2023-01-31T06:29:37.215Z,100053.63
2023-01-31T06:32:06.179Z,100045.44
2023-01-31T06:34:34.789Z,100057.78
2023-01-31T06:37:05.005Z,100042.31
2023-01-31T06:39:33.475Z,100047.31
2023-01-31T06:42:01.944Z,100046.28
2023-01-31T06:44:33.674Z,100036.03
2023-01-31T06:47:02.734Z,100045.22
2023-01-31T06:49:31.506Z,100055.81
2023-01-31T06:52:00.037Z,100059.59
2023-01-31T06:54:30.548Z,100058.09
2023-01-31T06:56:59.120Z,100061.78
2023-01-31T06:59:27.587Z,100052.13
2023-01-31T07:01:56.032Z,100051.09
2023-01-31T07:04:24.784Z,100055.72
2023-01-31T07:06:54.020Z,100066.91
2023-01-31T07:09:22.570Z,100083.00
2023-01-31T07:11:52.610Z,100085.63
2023-01-31T07:14:21.191Z,100092.72
2023-01-31T07:16:49.851Z,100091.78
2023-01-31T07:19:18.342Z,100088.34
2023-01-31T07:21:49.227Z,100095.47
2023-01-31T07:24:18.074Z,100103.94
2023-01-31T07:26:46.738Z,100110.31
2023-01-31T07:29:16.703Z,100115.53
2023-01-31T07:31:45.083Z,100099.31
2023-01-31T07:34:13.678Z,100116.47
2023-01-31T07:36:42.778Z,100134.78
2023-01-31T07:39:11.560Z,100127.88
2023-01-31T07:41:39.932Z,100140.03
2023-01-31T07:44:09.139Z,100146.09
2023-01-31T07:46:39.276Z,100148.81
2023-01-31T07:49:07.748Z,100156.78
2023-01-31T07:51:36.309Z,100140.84
2023-01-31T07:54:04.891Z,100163.88
2023-01-31T07:56:34.149Z,100156.13
2023-01-31T07:59:02.619Z,100149.22
2023-01-31T08:01:50.611Z,100145.88
2023-01-31T08:04:22.581Z,100149.22
2023-01-31T08:06:55.557Z,100140.44
2023-01-31T08:09:25.353Z,100156.78
2023-01-31T08:11:54.170Z,100158.25
2023-01-31T08:14:25.728Z,100158.84
2023-01-31T08:16:54.684Z,100156.97
2023-01-31T08:19:24.593Z,100160.97
2023-01-31T08:21:53.047Z,100162.34
2023-01-31T08:24:21.805Z,100166.44
2023-01-31T08:26:50.298Z,100160.06
2023-01-31T08:29:18.940Z,100164.13
2023-01-31T08:31:48.850Z,100157.63
2023-01-31T08:34:18.983Z,100159.94
2023-01-31T08:36:49.063Z,100162.34
2023-01-31T08:39:17.760Z,100165.69
2023-01-31T08:41:46.192Z,100163.09
2023-01-31T08:44:14.673Z,100160.25
2023-01-31T08:46:43.203Z,100169.78
2023-01-31T08:49:11.797Z,100158.16
2023-01-31T08:51:41.509Z,100167.91
2023-01-31T08:54:13.042Z,100175.31
2023-01-31T08:56:41.506Z,100169.16
2023-01-31T08:59:09.897Z,100179.50
2023-01-31T09:01:38.741Z,100182.13
2023-01-31T09:04:07.246Z,100188.09
2023-01-31T09:06:35.699Z,100184.66
2023-01-31T09:09:04.244Z,100180.66
2023-01-31T09:11:36.169Z,100204.31
2023-01-31T09:14:04.847Z,100197.31
2023-01-31T09:16:33.631Z,100206.84
2023-01-31T09:19:02.119Z,100210.19
2023-01-31T09:21:31.118Z,100209.97
2023-01-31T09:24:02.496Z,100206.22
2023-01-31T09:26:32.273Z,100200.97
2023-01-31T09:29:02.784Z,100204.09
2023-01-31T09:31:32.140Z,100211.31
2023-01-31T09:34:01.195Z,100211.84
2023-01-31T09:36:30.145Z,100211.53
2023-01-31T09:38:59.734Z,100213.81
2023-01-31T09:41:35.542Z,100205.53
2023-01-31T09:44:08.293Z,100209.72
2023-01-31T09:46:40.809Z,100211.50
2023-01-31T09:49:17.804Z,100205.81
2023-01-31T09:51:47.595Z,100195.19
2023-01-31T09:54:25.670Z,100212.59
2023-01-31T09:57:02.477Z,100183.38
2023-01-31T09:59:43.963Z,100205.22
2023-01-31T10:02:29.814Z,100191.63
2023-01-31T10:05:11.087Z,100191.63
2023-01-31T10:07:46.083Z,100191.63
2023-01-31T10:10:29.013Z,100193.50
2023-01-31T10:13:02.305Z,100195.53
2023-01-31T10:15:38.416Z,100195.03
2023-01-31T10:18:12.951Z,100190.53
2023-01-31T10:20:47.857Z,100193.59
2023-01-31T10:23:25.013Z,100181.66
2023-01-31T10:25:59.418Z,100181.34
2023-01-31T10:28:36.587Z,100177.44
2023-01-31T10:31:13.517Z,100181.28
2023-01-31T10:33:49.449Z,100183.88
2023-01-31T10:36:24.104Z,100176.28
2023-01-31T10:39:02.833Z,100173.53
2023-01-31T10:41:46.393Z,100179.19
2023-01-31T10:44:23.629Z,100168.09
2023-01-31T10:46:57.306Z,100170.72
2023-01-31T10:49:27.781Z,100172.28
2023-01-31T10:52:19.700Z,100178.13
2023-01-31T10:54:57.131Z,100170.59
2023-01-31T10:57:25.882Z,100171.44
2023-01-31T10:59:55.810Z,100162.84
2023-01-31T11:02:28.847Z,100168.31
2023-01-31T11:04:58.949Z,100173.31
2023-01-31T11:07:31.229Z,100164.00
2023-01-31T11:09:59.752Z,100168.09
2023-01-31T11:12:43.603Z,100167.75
2023-01-31T11:15:19.379Z,100163.13
2023-01-31T11:17:49.728Z,100155.16
2023-01-31T11:20:25.551Z,100158.59
2023-01-31T11:22:55.081Z,100147.66
2023-01-31T11:25:26.197Z,100151.00
2023-01-31T11:27:57.124Z,100143.13
2023-01-31T11:30:29.770Z,100138.63
2023-01-31T11:33:00.364Z,100127.53
2023-01-31T11:35:31.231Z,100133.88
2023-01-31T11:38:01.673Z,100131.25
2023-01-31T11:40:33.620Z,100120.75
2023-01-31T11:43:04.440Z,100118.63
2023-01-31T11:45:35.495Z,100111.47
2023-01-31T11:48:13.377Z,100107.91
2023-01-31T11:50:44.650Z,100106.47
2023-01-31T11:53:20.431Z,100105.50
2023-01-31T11:55:50.463Z,100095.72
2023-01-31T11:58:22.072Z,100092.38
2023-01-31T12:00:56.667Z,100094.91
2023-01-31T12:03:27.606Z,100096.19
2023-01-31T12:06:02.905Z,100093.94
2023-01-31T12:08:33.847Z,100093.31
2023-01-31T12:11:07.572Z,100096.88
2023-01-31T12:13:48.700Z,100090.19
2023-01-31T12:16:22.014Z,100087.78
2023-01-31T12:19:04.683Z,100079.44
2023-01-31T12:21:46.164Z,100075.38
2023-01-31T12:24:29.352Z,100078.94
2023-01-31T12:27:01.121Z,100058.25
2023-01-31T12:30:11.928Z,100071.44
2023-01-31T12:32:54.495Z,100064.03
2023-01-31T12:35:41.286Z,100057.53
2023-01-31T12:38:31.723Z,100053.22
2023-01-31T12:41:10.549Z,100059.47
2023-01-31T12:43:58.619Z,100049.47
2023-01-31T12:46:37.003Z,100044.81
2023-01-31T12:49:28.461Z,100041.75
2023-01-31T12:52:07.292Z,100039.63
2023-01-31T12:54:46.770Z,100035.00
2023-01-31T12:57:29.605Z,100041.91
2023-01-31T13:00:11.148Z,100033.91
2023-01-31T13:02:47.346Z,100041.78
2023-01-31T13:05:28.687Z,100025.00
2023-01-31T13:08:05.469Z,100020.81
2023-01-31T13:10:40.869Z,100024.16
2023-01-31T13:13:17.717Z,100022.47
2023-01-31T13:15:52.870Z,100010.78
2023-01-31T13:18:25.463Z,100017.94
2023-01-31T13:20:59.386Z,100012.91
2023-01-31T13:23:34.215Z,100026.25
2023-01-31T13:26:13.115Z,100026.47
2023-01-31T13:28:48.398Z,100018.34
2023-01-31T13:31:22.447Z,100012.63
2023-01-31T13:33:56.283Z,100012.63
2023-01-31T13:36:30.350Z,100003.94
2023-01-31T13:39:03.868Z,99997.75
2023-01-31T13:41:33.849Z,99992.03
2023-01-31T13:44:03.554Z,99985.94
2023-01-31T13:46:38.995Z,99979.97
2023-01-31T13:49:11.265Z,99980.25
2023-01-31T13:51:44.883Z,99980.03
2023-01-31T13:54:24.470Z,99970.25
2023-01-31T13:56:56.379Z,99978.84
2023-01-31T13:59:28.809Z,99979.78
2023-01-31T14:02:00.559Z,99972.63
2023-01-31T14:04:40.229Z,99975.88
2023-01-31T14:07:24.588Z,99974.31
2023-01-31T14:10:30.506Z,99970.16
2023-01-31T14:13:38.387Z,99962.38
2023-01-31T14:16:38.997Z,99963.34
2023-01-31T14:19:55.272Z,99967.63
2023-01-31T14:22:26.147Z,99954.75
2023-01-31T14:25:00.492Z,99950.22
2023-01-31T14:27:33.777Z,99951.19
2023-01-31T14:30:23.263Z,99945.00
2023-01-31T14:33:05.860Z,99943.31
2023-01-31T14:35:57.465Z,99936.53
2023-01-31T14:38:42.370Z,99945.09
2023-01-31T14:41:22.174Z,99925.88
2023-01-31T14:44:11.319Z,99945.78
2023-01-31T14:47:07.374Z,99938.03
2023-01-31T14:49:52.786Z,99925.88
2023-01-31T14:52:38.388Z,99916.13
2023-01-31T14:55:26.468Z,99913.50
2023-01-31T14:57:58.505Z,99913.50
2023-01-31T15:00:31.738Z,99915.16
2023-01-31T15:03:07.450Z,99913.72
2023-01-31T15:05:47.657Z,99911.59
2023-01-31T15:08:39.780Z,99910.53
2023-01-31T15:11:13.133Z,99910.16
2023-01-31T15:13:49.534Z,99906.81
2023-01-31T15:16:23.110Z,99906.81
2023-01-31T15:18:55.409Z,99904.69
2023-01-31T15:21:28.398Z,99896.56
2023-01-31T15:23:57.593Z,99913.84
2023-01-31T15:26:30.571Z,99901.81
2023-01-31T15:28:59.479Z,99907.75
2023-01-31T15:31:34.925Z,99900.13
2023-01-31T15:34:09.013Z,99900.13
2023-01-31T15:36:44.881Z,99914.09
2023-01-31T15:39:22.904Z,99910.53
2023-01-31T15:41:51.448Z,99898.47
2023-01-31T15:44:22.401Z,99899.09
2023-01-31T15:46:53.350Z,99901.56
2023-01-31T15:49:39.093Z,99891.94
2023-01-31T15:52:15.713Z,99897.91
2023-01-31T15:54:58.998Z,99900.41
2023-01-31T15:57:37.003Z,99897.78
2023-01-31T16:00:06.870Z,99884.81
2023-01-31T16:02:38.152Z,99874.31
2023-01-31T16:05:08.259Z,99880.63
2023-01-31T16:07:37.015Z,99889.31
2023-01-31T16:10:06.719Z,99893.00
2023-01-31T16:12:43.651Z,99884.16
2023-01-31T16:15:20.717Z,99897.94
2023-01-31T16:17:51.870Z,99888.06
2023-01-31T16:20:45.409Z,99876.28
2023-01-31T16:23:34.765Z,99870.56
2023-01-31T16:26:11.900Z,99867.66
2023-01-31T16:28:44.202Z,99885.41
2023-01-31T16:31:17.933Z,99865.78
2023-01-31T16:33:52.414Z,99871.97
2023-01-31T16:36:25.724Z,99861.09
2023-01-31T16:38:59.256Z,99858.69
2023-01-31T16:41:48.236Z,99838.84
2023-01-31T16:44:20.271Z,99837.16
2023-01-31T16:46:50.286Z,99842.28
2023-01-31T16:49:23.870Z,99833.59
2023-01-31T16:51:55.717Z,99826.69
2023-01-31T16:54:25.879Z,99826.69
2023-01-31T16:57:09.396Z,99831.06
2023-01-31T16:59:45.878Z,99827.03
2023-01-31T17:02:20.635Z,99827.88
2023-01-31T17:04:53.040Z,99822.50
2023-01-31T17:07:23.955Z,99816.69
2023-01-31T17:09:57.031Z,99799.31
2023-01-31T17:12:28.441Z,99800.97
2023-01-31T17:15:01.613Z,99802.25
2023-01-31T17:17:34.623Z,99799.88
2023-01-31T17:20:05.635Z,99793.81
2023-01-31T17:22:34.372Z,99785.47
2023-01-31T17:25:03.000Z,99780.72
2023-01-31T17:27:31.751Z,99771.03
2023-01-31T17:30:00.177Z,99775.50
2023-01-31T17:32:30.921Z,99775.34
2023-01-31T17:35:00.694Z,99774.31
2023-01-31T17:37:32.174Z,99758.84
2023-01-31T17:40:12.242Z,99765.50
2023-01-31T17:42:40.903Z,99758.38
2023-01-31T17:45:15.250Z,99748.94
2023-01-31T17:47:44.347Z,99741.94
2023-01-31T17:50:17.215Z,99740.28
2023-01-31T17:52:47.865Z,99756.09
2023-01-31T17:55:18.070Z,99748.94
2023-01-31T17:57:49.825Z,99733.97
2023-01-31T18:00:20.146Z,99722.44
2023-01-31T18:02:48.878Z,99720.06
2023-01-31T18:05:30.278Z,99714.69
2023-01-31T18:08:08.237Z,99719.94
2023-01-31T18:10:36.733Z,99718.03
2023-01-31T18:13:05.313Z,99717.22
2023-01-31T18:15:34.300Z,99705.31
2023-01-31T18:18:02.774Z,99716.97
2023-01-31T18:20:31.482Z,99705.06
2023-01-31T18:23:00.047Z,99705.56
2023-01-31T18:25:31.025Z,99709.22
2023-01-31T18:27:59.591Z,99711.97
2023-01-31T18:30:28.097Z,99704.59
2023-01-31T18:32:56.566Z,99703.28
2023-01-31T18:35:24.972Z,99695.56
2023-01-31T18:37:53.743Z,99694.13
2023-01-31T18:40:22.236Z,99690.31
2023-01-31T18:42:52.080Z,99699.22
2023-01-31T18:45:21.026Z,99674.59
2023-01-31T18:47:49.854Z,99668.16
2023-01-31T18:50:18.950Z,99664.09
2023-01-31T18:52:47.639Z,99650.97
2023-01-31T18:55:16.220Z,99648.34
2023-01-31T18:57:44.718Z,99657.88
2023-01-31T19:00:16.465Z,99646.44
2023-01-31T19:02:49.865Z,99673.47
2023-01-31T19:05:18.728Z,99691.19
2023-01-31T19:07:47.468Z,99664.41
2023-01-31T19:10:16.677Z,99666.88
2023-01-31T19:12:45.435Z,99683.56
2023-01-31T19:15:15.353Z,99678.31
2023-01-31T19:17:43.843Z,99674.41
2023-01-31T19:20:13.925Z,99657.00
2023-01-31T19:22:42.672Z,99662.38
2023-01-31T19:25:11.301Z,99667.63
2023-01-31T19:27:41.462Z,99655.81
2023-01-31T19:30:11.513Z,99649.63
2023-01-31T19:32:44.117Z,99650.44
2023-01-31T19:35:12.776Z,99644.59
2023-01-31T19:37:41.291Z,99634.66
2023-01-31T19:40:10.552Z,99635.13
2023-01-31T19:42:41.090Z,99625.22
2023-01-31T19:45:11.639Z,99651.69
2023-01-31T19:47:52.402Z,99615.22
2023-01-31T19:50:21.693Z,99632.25
2023-01-31T19:52:50.298Z,99630.56
2023-01-31T19:55:20.524Z,99622.19
2023-01-31T19:57:49.839Z,99619.47
2023-01-31T20:00:18.948Z,99623.38
2023-01-31T20:02:47.496Z,99615.50
2023-01-31T20:05:17.481Z,99610.66
2023-01-31T20:07:46.144Z,99588.31
2023-01-31T20:10:15.122Z,99589.97
2023-01-31T20:12:44.823Z,99602.72
2023-01-31T20:15:13.569Z,99612.41
2023-01-31T20:17:42.234Z,99601.91
2023-01-31T20:20:11.995Z,99610.47
2023-01-31T20:22:42.148Z,99598.31
2023-01-31T20:25:11.256Z,99606.19
2023-01-31T20:27:39.843Z,99609.88
2023-01-31T20:30:10.095Z,99605.59
2023-01-31T20:32:38.682Z,99620.38
2023-01-31T20:35:08.827Z,99603.56
2023-01-31T20:37:37.284Z,99602.72
2023-01-31T20:40:08.404Z,99597.22
2023-01-31T20:42:37.711Z,99600.78
2023-01-31T20:45:07.221Z,99604.97
2023-01-31T20:47:35.930Z,99601.38
2023-01-31T20:50:04.637Z,99617.69
2023-01-31T20:52:33.788Z,99613.84
2023-01-31T20:55:02.818Z,99616.72
2023-01-31T20:57:32.799Z,99601.69
2023-01-31T21:00:01.261Z,99618.38
2023-01-31T21:02:29.977Z,99607.78
2023-01-31T21:04:58.418Z,99618.97
2023-01-31T21:07:26.847Z,99607.53
2023-01-31T21:09:56.081Z,99604.19
2023-01-31T21:12:24.476Z,99603.09
2023-01-31T21:14:54.503Z,99580.25
2023-01-31T21:17:37.751Z,99601.19
2023-01-31T21:20:08.318Z,99597.47
2023-01-31T21:22:37.007Z,99596.25
2023-01-31T21:25:06.011Z,99588.38
2023-01-31T21:27:34.561Z,99587.16
2023-01-31T21:30:04.745Z,99581.66
2023-01-31T21:32:33.313Z,99586.91
2023-01-31T21:35:03.376Z,99579.16
2023-01-31T21:37:32.065Z,99575.81
2023-01-31T21:40:00.465Z,99573.63
2023-01-31T21:42:27.873Z,99578.78
2023-01-31T21:44:56.485Z,99587.19
2023-01-31T21:47:26.897Z,99589.97
2023-01-31T21:49:55.581Z,99581.69
2023-01-31T21:52:24.091Z,99581.94
2023-01-31T21:54:53.024Z,99571.78
2023-01-31T21:57:21.494Z,99576.06
2023-01-31T21:59:49.889Z,99571.50
2023-01-31T22:02:18.401Z,99595.25
2023-01-31T22:04:48.489Z,99552.88
2023-01-31T22:07:16.878Z,99557.16
2023-01-31T22:09:45.338Z,99567.50
2023-01-31T22:12:14.188Z,99572.91
2023-01-31T22:14:42.721Z,99567.66
2023-01-31T22:17:11.219Z,99560.16
2023-01-31T22:19:39.762Z,99567.06
2023-01-31T22:22:09.734Z,99573.59
2023-01-31T22:24:38.206Z,99570.97
2023-01-31T22:27:06.626Z,99553.16
2023-01-31T22:29:35.101Z,99560.22
2023-01-31T22:32:03.545Z,99558.03
2023-01-31T22:34:32.070Z,99557.78
2023-01-31T22:37:00.775Z,99563.03
2023-01-31T22:39:30.764Z,99573.97
2023-01-31T22:41:59.164Z,99553.53
2023-01-31T22:44:27.650Z,99551.03
2023-01-31T22:46:56.145Z,99551.03
2023-01-31T22:49:24.702Z,99521.31
2023-01-31T22:51:53.462Z,99537.22
2023-01-31T22:54:22.039Z,99541.41
2023-01-31T22:56:54.365Z,99536.31
2023-01-31T22:59:23.074Z,99539.78
2023-01-31T23:01:51.518Z,99545.84
2023-01-31T23:04:20.009Z,99567.56
2023-01-31T23:06:48.235Z,99677.59
2023-01-31T23:09:16.415Z,99685.81
2023-01-31T23:11:44.841Z,99664.84
2023-01-31T23:14:17.474Z,99677.81
2023-01-31T23:17:02.224Z,99689.19
2023-01-31T23:19:30.537Z,99672.69
2023-01-31T23:21:58.830Z,99655.06
2023-01-31T23:24:30.094Z,99652.16
2023-01-31T23:26:58.301Z,99632.78
2023-01-31T23:29:27.977Z,99633.13
2023-01-31T23:31:56.976Z,99597.88
2023-01-31T23:34:25.380Z,99583.19
2023-01-31T23:36:53.705Z,99582.06
2023-01-31T23:39:22.169Z,99604.50
2023-01-31T23:41:50.472Z,99608.06
2023-01-31T23:44:18.667Z,99614.03
2023-01-31T23:46:48.786Z,99608.22
2023-01-31T23:49:16.996Z,99609.41
2023-01-31T23:51:45.385Z,99613.19
2023-01-31T23:54:13.872Z,99624.00
2023-01-31T23:56:42.164Z,99635.75
2023-01-31T23:59:10.514Z,99630.75
